Latest Weather Observations for Brisbane

IDQ60901

Issued at 4:41 pm EST Tuesday 21 April 2015 (issued every 10 minutes, with the page automatically refreshed every 10 minutes)

About weather observations | Map of Brisbane area stations | Latest observations for Brisbane area | Other Formats
Station Details ID: 040913 Name: BRISBANE Lat: -27.48 Lon: 153.04 Height: 8.13 m
Data from the previous 72 hours. | See also: Recent months at Brisbane
Date/Time
EST
Tmp

°C
App
Tmp
°C
Dew
Point
°C
Rel
Hum
%
Delta-T

°C
Wind Press
QNH
hPa
Press
MSL
hPa
Rain
since
9 am
mm
Dir
 
Spd
km/h
Gust
km/h
Spd
kts
Gust
kts
21/04:30pm 19.4 17.4 7.2 45 6.2 W 7 17 4 9 1015.2 1015.2 0.2
21/04:00pm 19.5 16.3 6.9 44 6.3 WSW 13 22 7 12 1015.0 1015.0 0.2
21/03:30pm 19.5 15.6 7.3 45 6.2 W 17 30 9 16 1015.1 1015.1 0.2
21/03:00pm 19.9 16.5 7.6 45 6.3 WSW 15 33 8 18 1014.9 1014.9 0.2
21/02:30pm 19.7 15.2 6.8 43 6.5 W 20 35 11 19 1015.1 1015.1 0.2
21/02:00pm 21.0 18.0 7.6 42 6.9 WSW 13 24 7 13 1014.9 1014.9 0.2
21/01:30pm 20.8 18.6 7.8 43 6.7 W 9 20 5 11 1015.3 1015.3 0.2
21/01:00pm 20.4 17.3 7.1 42 6.8 W 13 26 7 14 1015.6 1015.6 0.2
21/12:30pm 19.3 15.0 5.4 40 6.8 W 17 30 9 16 1016.1 1016.1 0.2
21/12:00pm 20.2 16.9 6.5 41 6.9 W 13 28 7 15 1016.3 1016.3 0.2
21/11:30am 20.1 16.4 6.1 40 7.0 W 15 30 8 16 1016.6 1016.6 0.2
21/11:00am 19.3 16.1 6.8 44 6.3 WSW 13 24 7 13 1016.9 1016.9 0.2
21/10:30am 18.5 14.3 5.7 43 6.3 W 17 28 9 15 1016.9 1016.9 0.2
21/10:00am 18.7 15.3 7.5 48 5.7 WSW 15 28 8 15 1017.2 1017.2 0.0
21/09:30am 17.7 14.1 6.9 49 5.4 W 15 35 8 19 1017.4 1017.4 0.0
21/09:00am 17.1 13.8 6.3 49 5.3 W 13 22 7 12 1017.6 1017.6 2.0
21/08:30am 17.4 15.0 7.2 51 5.1 WSW 9 15 5 8 1017.4 1017.4 2.0
21/08:00am 16.9 14.9 7.3 53 4.8 WSW 7 19 4 10 1017.4 1017.4 2.0
21/07:30am 15.9 13.5 7.1 56 4.3 W 9 22 5 12 1017.2 1017.2 2.0
21/07:00am 15.0 12.3 7.3 60 3.8 W 11 17 6 9 1016.9 1016.9 2.0
21/06:30am 14.9 13.1 7.2 60 3.8 WSW 6 15 3 8 1016.7 1016.7 2.0
21/06:00am 15.2 12.5 7.3 59 3.9 W 11 30 6 16 1016.7 1016.7 2.0
21/05:30am 14.8 13.2 7.8 63 3.5 WSW 6 13 3 7 1016.3 1016.3 2.0
21/05:00am 14.9 12.7 7.9 63 3.5 W 9 19 5 10 1016.0 1016.0 2.0
21/04:30am 14.9 12.5 8.6 66 3.2 W 11 22 6 12 1015.9 1015.9 2.0
21/04:00am 15.1 13.2 9.0 67 3.1 WSW 9 22 5 12 1015.8 1015.8 2.0
21/03:30am 15.4 13.7 9.7 69 3.0 WSW 9 15 5 8 1015.5 1015.5 2.0
21/03:00am 15.5 13.4 9.8 69 3.0 W 11 24 6 13 1015.7 1015.7 2.0
21/02:30am 15.7 13.7 10.2 70 2.9 W 11 20 6 11 1016.0 1016.0 2.0
21/02:00am 16.1 14.2 10.6 70 2.9 WSW 11 20 6 11 1016.0 1016.0 2.0
21/01:30am 16.1 14.3 10.8 71 2.8 W 11 20 6 11 1016.5 1016.5 2.0
21/01:00am 16.1 15.4 11.3 73 2.6 WSW 6 11 3 6 1016.7 1016.7 2.0
21/12:30am 16.0 15.2 11.2 73 2.6 SW 6 9 3 5 1016.8 1016.8 2.0
21/12:00am 16.3 15.4 11.2 72 2.7 SW 7 15 4 8 1017.3 1017.3 2.0
 
Date/Time
EST
Tmp

°C
App
Tmp
°C
Dew
Point
°C
Rel
Hum
%
Delta-T

°C
Wind Press
QNH
hPa
Press
MSL
hPa
Rain
since
9 am
mm
Dir
 
Spd
km/h
Gust
km/h
Spd
kts
Gust
kts
20/11:30pm 16.4 15.2 11.6 73 2.6 WSW 9 17 5 9 1017.5 1017.5 2.0
20/11:00pm 16.7 16.1 12.3 75 2.4 W 7 19 4 10 1017.3 1017.3 2.0
20/10:30pm 16.9 16.5 12.4 75 2.5 WSW 6 17 3 9 1017.1 1017.1 2.0
20/10:00pm 17.0 16.5 12.7 76 2.4 W 7 11 4 6 1017.5 1017.5 2.0
20/09:30pm 17.0 15.8 12.7 76 2.4 W 11 20 6 11 1017.8 1017.8 2.0
20/09:00pm 17.4 17.9 15.0 86 1.4 WSW 6 11 3 6 1017.8 1017.8 2.0
20/08:30pm 17.5 18.8 15.1 86 1.4 S 2 6 1 3 1017.3 1017.3 2.0
20/08:00pm 17.8 19.3 15.6 87 1.3 WSW 2 6 1 3 1018.0 1018.0 2.0
20/07:30pm 17.7 19.7 15.9 89 1.1 CALM 0 0 0 0 1017.9 1017.9 2.0
20/07:00pm 18.0 19.4 15.4 85 1.5 S 2 6 1 3 1017.7 1017.7 2.0
20/06:30pm 18.4 18.9 15.6 84 1.6 W 7 13 4 7 1017.9 1017.9 1.8
20/06:00pm 18.6 19.1 16.6 88 1.2 W 9 19 5 10 1017.7 1017.7 1.8
20/05:30pm 18.7 20.6 16.7 88 1.2 W 2 7 1 4 1017.3 1017.3 1.8
20/05:00pm 19.1 20.4 17.1 88 1.2 W 6 9 3 5 1017.0 1017.0 1.8
20/04:30pm 19.7 21.3 17.8 89 1.2 W 6 11 3 6 1017.2 1017.2 1.4
20/04:00pm 20.0 21.7 18.0 88 1.2 WSW 6 11 3 6 1016.8 1016.8 1.0
20/03:30pm 20.3 21.8 17.5 84 1.7 SW 6 9 3 5 1016.2 1016.2 0.8
20/03:00pm 20.6 23.1 18.2 86 1.5 SSW 2 4 1 2 1016.3 1016.3 0.6
20/02:30pm 20.8 23.0 18.4 86 1.5 SSW 4 6 2 3 1016.2 1016.2 0.6
20/02:00pm 21.0 23.8 18.8 87 1.4 SSW 2 6 1 3 1016.2 1016.2 0.6
20/01:30pm 20.9 23.2 18.5 86 1.5 W 4 7 2 4 1016.8 1016.8 0.6
20/01:00pm 21.0 23.4 18.8 87 1.4 WSW 4 6 2 3 1017.0 1017.0 0.6
20/12:30pm 21.0 23.8 18.9 88 1.3 SW 2 4 1 2 1017.3 1017.3 0.4
20/12:00pm 20.9 22.8 18.5 86 1.5 SW 6 11 3 6 1017.4 1017.4 0.2
20/11:30am 20.9 22.8 18.5 86 1.5 W 6 11 3 6 1018.0 1018.0 0.0
20/11:00am 21.2 23.6 18.8 86 1.5 WSW 4 9 2 5 1018.1 1018.1 0.0
20/10:30am 21.1 22.8 18.5 85 1.6 WSW 7 11 4 6 1018.3 1018.3 0.0
20/10:00am 20.7 22.4 18.1 85 1.6 WSW 6 11 3 6 1018.6 1018.6 0.0
20/09:30am 21.1 22.7 18.3 84 1.7 WSW 7 13 4 7 1018.7 1018.7 0.0
20/09:00am 20.8 23.1 18.6 87 1.4 SSW 4 7 2 4 1018.2 1018.2 14.6
20/08:30am 20.4 22.2 18.3 88 1.3 WSW 6 7 3 4 1018.7 1018.7 14.6
20/08:00am 20.2 21.8 18.3 89 1.2 WSW 7 13 4 7 1018.3 1018.3 14.6
20/07:30am 20.0 22.4 18.7 92 0.8 WSW 4 6 2 3 1017.9 1017.9 14.6
20/07:00am 19.9 22.2 18.6 92 0.8 SW 4 7 2 4 1018.1 1018.1 14.6
20/06:30am 19.9 22.6 18.6 92 0.8 SSW 2 7 1 4 1018.0 1018.0 14.6
20/06:00am 19.8 22.4 18.5 92 0.8 S 2 6 1 3 1018.0 1018.0 14.6
20/05:30am 19.7 21.8 18.2 91 0.9 SW 4 6 2 3 1017.9 1017.9 14.4
20/05:00am 19.8 21.6 18.3 91 0.9 WSW 6 9 3 5 1017.9 1017.9 14.4
20/04:30am 19.9 21.7 18.4 91 0.9 SW 6 9 3 5 1017.8 1017.8 14.4
20/04:00am 20.0 21.9 18.5 91 0.9 SSW 6 9 3 5 1017.4 1017.4 14.4
20/03:30am 20.2 21.8 18.3 89 1.2 SW 7 15 4 8 1017.4 1017.4 14.4
20/03:00am 20.6 22.2 19.1 91 0.9 SW 9 13 5 7 1017.1 1017.1 14.4
20/02:30am 20.8 23.0 19.5 92 0.8 WSW 7 13 4 7 1017.3 1017.3 14.4
20/02:00am 21.4 24.0 20.4 94 0.6 SW 7 13 4 7 1017.1 1017.1 14.4
20/01:30am 21.3 24.8 20.3 94 0.6 WSW 2 4 1 2 1016.8 1016.8 14.4
20/01:00am 21.3 24.6 19.9 92 0.9 WNW 2 4 1 2 1017.5 1017.5 12.8
20/12:30am 21.6 24.8 19.7 89 1.2 E 2 6 1 3 1017.7 1017.7 6.6
20/12:00am 22.3 25.5 19.8 86 1.6 ESE 2 4 1 2 1017.6 1017.6 3.8
 
Date/Time
EST
Tmp

°C
App
Tmp
°C
Dew
Point
°C
Rel
Hum
%
Delta-T

°C
Wind Press
QNH
hPa
Press
MSL
hPa
Rain
since
9 am
mm
Dir
 
Spd
km/h
Gust
km/h
Spd
kts
Gust
kts
19/11:30pm 22.4 25.8 20.1 87 1.5 W 2 4 1 2 1018.0 1018.0 3.8
19/11:00pm 22.8 26.6 20.9 89 1.2 SW 2 4 1 2 1018.3 1018.3 3.8
19/10:30pm 23.1 27.2 21.5 91 1.1 SW 2 4 1 2 1018.1 1018.1 3.8
19/10:00pm 23.1 27.6 21.5 91 1.1 CALM 0 0 0 0 1018.3 1018.3 3.8
19/09:30pm 22.9 27.4 21.5 92 0.9 CALM 0 0 0 0 1018.4 1018.4 3.8
19/09:00pm 22.9 27.3 21.4 91 1.0 CALM 0 0 0 0 1018.5 1018.5 3.8
19/08:30pm 22.8 27.2 21.3 91 1.0 CALM 0 0 0 0 1018.5 1018.5 3.8
19/08:00pm 22.7 26.8 20.8 89 1.2 CALM 0 2 0 1 1018.3 1018.3 3.8
19/07:30pm 23.1 27.4 21.2 89 1.2 CALM 0 4 0 2 1018.3 1018.3 3.8
19/07:00pm 22.7 26.9 21.0 90 1.1 CALM 0 2 0 1 1018.1 1018.1 3.8
19/06:30pm 23.0 27.2 20.9 88 1.4 CALM 0 2 0 1 1017.5 1017.5 3.8
19/06:00pm 23.1 26.5 21.0 88 1.4 NE 4 6 2 3 1017.2 1017.2 3.8
19/05:30pm 23.2 27.0 20.9 87 1.5 NNE 2 6 1 3 1017.1 1017.1 3.8
19/05:00pm 23.4 27.2 20.9 86 1.6 ENE 2 6 1 3 1016.8 1016.8 3.8
19/04:30pm 23.4 26.7 20.7 85 1.8 ENE 4 6 2 3 1016.7 1016.7 3.8
19/04:00pm 24.1 26.9 19.6 76 2.9 WSW 4 17 2 9 1016.5 1016.5 3.4
19/03:30pm 26.2 28.6 19.6 67 4.3 NE 6 9 3 5 1016.0 1016.0 0.2
19/03:00pm 26.9 29.1 19.3 63 4.9 N 6 9 3 5 1016.2 1016.2 0.2
19/02:30pm 27.5 30.1 19.3 61 5.3 NE 4 11 2 6 1016.2 1016.2 0.2
19/02:00pm 27.8 29.9 18.2 56 6.1 NE 4 7 2 4 1016.1 1016.1 0.2
19/01:30pm 27.9 31.0 19.4 60 5.5 NNW 2 4 1 2 1016.5 1016.5 0.2
19/01:00pm 27.7 30.6 19.8 62 5.1 SSW 4 7 2 4 1017.2 1017.2 0.2
19/12:30pm 27.1 29.1 17.8 56 5.9 ENE 4 9 2 5 1017.2 1017.2 0.2
19/12:00pm 27.8 30.0 19.3 60 5.5 NW 6 11 3 6 1017.8 1017.8 0.2
19/11:30am 26.7 28.9 18.3 60 5.3 WSW 4 7 2 4 1018.6 1018.6 0.2
19/11:00am 25.9 27.4 18.1 62 4.9 W 7 13 4 7 1019.0 1019.0 0.2
19/10:30am 25.7 28.0 18.6 65 4.5 SW 4 7 2 4 1019.0 1019.0 0.2
19/10:00am 25.1 27.5 19.7 72 3.5 SSW 6 9 3 5 1019.4 1019.4 0.0
19/09:30am 23.6 25.8 19.3 77 2.7 SW 6 11 3 6 1019.7 1019.7 0.0
19/09:00am 22.8 25.7 19.8 83 1.9 WSW 4 7 2 4 1019.6 1019.6 0.4
19/08:30am 22.7 25.9 20.4 87 1.5 WSW 4 6 2 3 1019.7 1019.7 0.4
19/08:00am 21.4 24.6 19.7 90 1.1 SW 2 4 1 2 1019.6 1019.6 0.4
19/07:30am 21.0 23.4 19.7 92 0.8 SW 6 9 3 5 1019.5 1019.5 0.4
19/07:00am 21.1 24.6 20.4 96 0.4 SW 2 4 1 2 1019.1 1019.1 0.4
19/06:30am 19.5 22.7 18.8 96 0.4 CALM 0 0 0 0 1018.7 1018.7 0.4
19/06:00am 19.5 22.5 18.5 94 0.6 CALM 0 0 0 0 1018.4 1018.4 0.4
19/05:30am 19.7 22.7 18.5 93 0.7 CALM 0 0 0 0 1018.3 1018.3 0.4
19/05:00am 19.9 22.6 18.6 92 0.8 SE 2 2 1 1 1018.3 1018.3 0.4
19/04:30am 20.4 23.4 19.2 93 0.8 ENE 2 6 1 3 1018.1 1018.1 0.4
19/04:00am 20.4 23.5 18.7 90 1.1 CALM 0 2 0 1 1018.0 1018.0 0.4
19/03:30am 20.9 24.2 19.2 90 1.1 CALM 0 0 0 0 1018.4 1018.4 0.4
19/03:00am 20.9 24.4 19.6 92 0.8 CALM 0 4 0 2 1018.5 1018.5 0.4
19/02:30am 20.4 23.2 18.9 91 0.9 E 2 4 1 2 1018.6 1018.6 0.4
19/02:00am 21.2 24.2 19.3 89 1.2 ESE 2 4 1 2 1018.9 1018.9 0.4
19/01:30am 21.7 24.8 19.4 87 1.5 ENE 2 4 1 2 1019.3 1019.3 0.4
19/01:00am 22.2 25.8 19.7 86 1.6 CALM 0 0 0 0 1019.8 1019.8 0.4
19/12:30am 22.2 25.0 19.6 85 1.7 NE 4 7 2 4 1019.9 1019.9 0.4
19/12:00am 22.5 24.7 19.5 83 1.9 ENE 7 13 4 7 1020.1 1020.1 0.4
 
Date/Time
EST
Tmp

°C
App
Tmp
°C
Dew
Point
°C
Rel
Hum
%
Delta-T

°C
Wind Press
QNH
hPa
Press
MSL
hPa
Rain
since
9 am
mm
Dir
 
Spd
km/h
Gust
km/h
Spd
kts
Gust
kts
18/11:30pm 22.3 25.3 19.3 83 1.9 NNE 2 7 1 4 1020.5 1020.5 0.4
18/11:00pm 22.9 24.7 19.5 81 2.2 NE 9 15 5 8 1020.6 1020.6 0.2
18/10:30pm 22.9 25.4 19.9 83 1.9 NE 6 13 3 7 1020.5 1020.5 0.2
18/10:00pm 22.9 25.1 19.7 82 2.0 NE 7 15 4 8 1020.7 1020.7 0.2
18/09:30pm 23.2 25.6 20.0 82 2.1 NE 7 13 4 7 1020.7 1020.7 0.2
18/09:00pm 23.3 25.5 19.5 79 2.4 NE 7 15 4 8 1020.8 1020.8 0.2
18/08:30pm 23.4 25.6 19.5 79 2.5 NE 7 13 4 7 1020.6 1020.6 0.2
18/08:00pm 23.7 26.1 20.0 80 2.4 NE 7 15 4 8 1020.4 1020.4 0.2
18/07:30pm 23.5 25.9 18.8 75 3.0 NE 4 7 2 4 1020.3 1020.3 0.2
18/07:00pm 23.6 26.0 18.7 74 3.1 NE 4 7 2 4 1019.8 1019.8 0.2
18/06:30pm 23.8 25.8 18.7 73 3.2 NE 6 11 3 6 1019.5 1019.5 0.2
18/06:00pm 24.0 25.7 18.4 71 3.5 NE 7 13 4 7 1019.5 1019.5 0.2
18/05:30pm 24.2 26.0 18.4 70 3.7 NNE 6 11 3 6 1019.3 1019.3 0.2
18/05:00pm 24.7 26.1 17.9 66 4.3 NNE 7 15 4 8 1019.3 1019.3 0.2

Latest Capital City Observations: Canberra | Sydney | Melbourne | Brisbane | Adelaide | Perth | Hobart | Darwin

Other Formats:

Comma delimited format used in spreadsheet applications
http://www.bom.gov.au/fwo/IDQ60901/IDQ60901.94576.axf

JavaScript Object Notation format (JSON) in row-major order
http://www.bom.gov.au/fwo/IDQ60901/IDQ60901.94576.json